createdAt,value
2023-02-14T00:01:10.915Z,2.88
2023-02-14T00:03:37.945Z,2.84
2023-02-14T00:06:14.877Z,2.80
2023-02-14T00:08:44.512Z,2.78
2023-02-14T00:11:13.270Z,2.76
2023-02-14T00:14:00.415Z,2.80
2023-02-14T00:16:27.565Z,2.85
2023-02-14T00:19:03.430Z,2.88
2023-02-14T00:21:38.055Z,2.90
2023-02-14T00:24:10.894Z,2.93
2023-02-14T00:26:38.960Z,2.89
2023-02-14T00:29:07.819Z,2.92
2023-02-14T00:31:35.575Z,2.93
2023-02-14T00:34:04.151Z,2.94
2023-02-14T00:36:31.049Z,2.98
2023-02-14T00:38:58.059Z,2.99
2023-02-14T00:41:25.226Z,2.94
2023-02-14T00:43:53.695Z,2.87
2023-02-14T00:46:22.346Z,2.83
2023-02-14T00:48:49.549Z,2.84
2023-02-14T00:51:18.537Z,2.72
2023-02-14T00:53:47.382Z,2.72
2023-02-14T00:56:14.876Z,2.72
2023-02-14T00:58:43.645Z,2.69
2023-02-14T01:01:11.252Z,2.65
2023-02-14T01:03:38.622Z,2.67
2023-02-14T01:06:06.752Z,2.70
2023-02-14T01:08:34.032Z,2.70
2023-02-14T01:11:19.411Z,2.68
2023-02-14T01:13:48.366Z,2.63
2023-02-14T01:16:21.944Z,2.63
2023-02-14T01:18:49.821Z,2.69
2023-02-14T01:21:21.163Z,2.67
2023-02-14T01:23:51.069Z,2.66
2023-02-14T01:26:19.689Z,2.66
2023-02-14T01:28:47.252Z,2.67
2023-02-14T01:31:17.675Z,2.66
2023-02-14T01:33:46.260Z,2.67
2023-02-14T01:36:28.222Z,2.70
2023-02-14T01:39:09.072Z,2.71
2023-02-14T01:41:38.033Z,2.74
2023-02-14T01:44:33.552Z,2.73
2023-02-14T01:47:05.164Z,2.72
2023-02-14T01:49:38.503Z,2.72
2023-02-14T01:52:37.822Z,2.74
2023-02-14T01:55:10.964Z,2.76
2023-02-14T01:57:44.488Z,2.74
2023-02-14T02:00:31.460Z,2.73
2023-02-14T02:03:01.540Z,2.69
2023-02-14T02:05:48.836Z,2.59
2023-02-14T02:08:17.031Z,2.57
2023-02-14T02:10:44.623Z,2.50
2023-02-14T02:13:20.046Z,2.42
2023-02-14T02:16:08.056Z,2.39
2023-02-14T02:18:53.642Z,2.35
2023-02-14T02:21:20.456Z,2.33
2023-02-14T02:23:57.835Z,2.30
2023-02-14T02:26:48.855Z,2.31
2023-02-14T02:29:55.228Z,2.34
2023-02-14T02:32:28.196Z,2.28
2023-02-14T02:35:16.883Z,2.24
2023-02-14T02:37:51.849Z,2.24
2023-02-14T02:40:32.753Z,2.23
2023-02-14T02:43:30.726Z,2.22
2023-02-14T02:46:35.641Z,2.25
2023-02-14T02:49:14.458Z,2.19
2023-02-14T02:52:07.477Z,2.15
2023-02-14T02:54:43.205Z,2.04
2023-02-14T02:57:19.735Z,2.09
2023-02-14T02:59:47.844Z,2.03
2023-02-14T03:03:03.315Z,2.04
2023-02-14T03:05:33.604Z,2.07
2023-02-14T03:08:00.716Z,2.09
2023-02-14T03:10:32.307Z,2.11
2023-02-14T03:13:24.811Z,2.13
2023-02-14T03:15:51.760Z,2.01
2023-02-14T03:18:43.265Z,2.08
2023-02-14T03:21:37.425Z,2.07
2023-02-14T03:24:10.464Z,2.08
2023-02-14T03:26:48.281Z,2.09
2023-02-14T03:29:37.377Z,2.00
2023-02-14T03:32:07.946Z,2.11
2023-02-14T03:34:53.738Z,2.14
2023-02-14T03:37:34.329Z,2.16
2023-02-14T03:40:28.639Z,2.17
2023-02-14T03:43:01.625Z,2.21
2023-02-14T03:45:41.490Z,2.22
2023-02-14T03:48:13.427Z,2.23
2023-02-14T03:50:42.827Z,2.18
2023-02-14T03:53:11.915Z,2.19
2023-02-14T03:55:51.466Z,2.20
2023-02-14T03:58:24.829Z,2.15
2023-02-14T04:00:58.605Z,2.19
2023-02-14T04:03:30.069Z,2.16
2023-02-14T04:05:57.157Z,2.17
2023-02-14T04:08:26.875Z,2.12
2023-02-14T04:10:56.781Z,2.06
2023-02-14T04:13:23.934Z,2.01
2023-02-14T04:15:50.824Z,1.99
2023-02-14T04:18:36.414Z,1.98
2023-02-14T04:21:03.687Z,1.96
2023-02-14T04:23:30.599Z,1.94
2023-02-14T04:25:57.934Z,1.98
2023-02-14T04:28:25.748Z,1.95
2023-02-14T04:30:52.831Z,1.98
2023-02-14T04:33:19.775Z,1.98
2023-02-14T04:35:47.994Z,2.00
2023-02-14T04:38:14.778Z,2.00
2023-02-14T04:40:41.743Z,2.01
2023-02-14T04:43:08.772Z,2.00
2023-02-14T04:45:35.804Z,1.94
2023-02-14T04:48:02.786Z,1.95
2023-02-14T04:50:29.924Z,1.80
2023-02-14T04:52:56.921Z,1.86
2023-02-14T04:55:23.982Z,1.85
2023-02-14T04:57:50.932Z,1.81
2023-02-14T05:00:18.548Z,1.88
2023-02-14T05:02:45.659Z,1.87
2023-02-14T05:05:12.719Z,1.88
2023-02-14T05:07:39.800Z,1.88
2023-02-14T05:10:07.553Z,1.88
2023-02-14T05:12:35.031Z,1.88
2023-02-14T05:15:02.259Z,1.81
2023-02-14T05:17:29.740Z,1.85
2023-02-14T05:19:56.726Z,1.83
2023-02-14T05:22:23.696Z,1.84
2023-02-14T05:24:50.700Z,1.86
2023-02-14T05:27:17.709Z,1.90
2023-02-14T05:29:44.644Z,1.89
2023-02-14T05:32:11.613Z,1.84
2023-02-14T05:34:38.575Z,1.85
2023-02-14T05:37:05.681Z,1.89
2023-02-14T05:39:32.630Z,1.83
2023-02-14T05:41:59.656Z,1.85
2023-02-14T05:44:26.702Z,1.82
2023-02-14T05:46:55.050Z,1.85
2023-02-14T05:49:22.100Z,1.86
2023-02-14T05:51:49.038Z,1.81
2023-02-14T05:54:15.995Z,1.83
2023-02-14T05:56:42.974Z,1.79
2023-02-14T05:59:09.915Z,1.79
2023-02-14T06:01:36.918Z,1.79
2023-02-14T06:04:03.946Z,1.80
2023-02-14T06:06:30.963Z,1.81
2023-02-14T06:08:57.951Z,1.81
2023-02-14T06:11:24.875Z,1.83
2023-02-14T06:13:51.910Z,1.81
2023-02-14T06:16:18.895Z,1.79
2023-02-14T06:18:45.827Z,1.82
2023-02-14T06:21:13.411Z,1.82
2023-02-14T06:23:40.407Z,1.83
2023-02-14T06:26:07.495Z,1.82
2023-02-14T06:28:34.407Z,1.81
2023-02-14T06:31:01.615Z,1.84
2023-02-14T06:33:28.948Z,1.87
2023-02-14T06:35:55.953Z,1.88
2023-02-14T06:38:22.993Z,1.98
2023-02-14T06:40:49.947Z,2.01
2023-02-14T06:43:16.877Z,2.09
2023-02-14T06:45:45.146Z,2.20
2023-02-14T06:48:12.123Z,2.27
2023-02-14T06:50:39.095Z,2.36
2023-02-14T06:53:06.458Z,2.39
2023-02-14T06:55:33.433Z,2.46
2023-02-14T06:58:00.420Z,2.50
2023-02-14T07:00:27.528Z,2.50
2023-02-14T07:02:54.517Z,2.54
2023-02-14T07:05:22.162Z,2.59
2023-02-14T07:07:49.181Z,2.65
2023-02-14T07:10:16.323Z,2.74
2023-02-14T07:12:43.460Z,2.78
2023-02-14T07:15:12.806Z,2.84
2023-02-14T07:17:39.985Z,2.91
2023-02-14T07:20:09.374Z,3.01
2023-02-14T07:22:36.907Z,3.09
2023-02-14T07:25:04.922Z,3.19
2023-02-14T07:27:32.572Z,3.29
2023-02-14T07:29:59.733Z,3.35
2023-02-14T07:32:26.928Z,3.48
2023-02-14T07:34:54.331Z,3.58
2023-02-14T07:37:21.464Z,3.70
2023-02-14T07:39:48.506Z,3.80
2023-02-14T07:42:15.507Z,3.89
2023-02-14T07:44:46.794Z,3.99
2023-02-14T07:47:13.734Z,4.07
2023-02-14T07:49:40.763Z,4.15
2023-02-14T07:52:07.874Z,4.25
2023-02-14T07:54:35.374Z,4.32
2023-02-14T07:57:02.463Z,4.39
2023-02-14T07:59:29.389Z,4.46
2023-02-14T08:01:56.753Z,4.57
2023-02-14T08:04:26.355Z,4.62
2023-02-14T08:06:54.299Z,4.78
2023-02-14T08:09:27.724Z,4.86
2023-02-14T08:12:16.822Z,4.94
2023-02-14T08:14:44.982Z,5.06
2023-02-14T08:17:13.610Z,5.18
2023-02-14T08:19:41.158Z,5.27
2023-02-14T08:22:08.851Z,5.35
2023-02-14T08:24:35.869Z,5.39
2023-02-14T08:27:02.981Z,5.41
2023-02-14T08:29:30.068Z,5.54
2023-02-14T08:32:00.521Z,5.54
2023-02-14T08:34:27.670Z,5.70
2023-02-14T08:36:55.506Z,5.82
2023-02-14T08:39:22.743Z,5.91
2023-02-14T08:41:49.770Z,6.03
2023-02-14T08:44:16.825Z,6.12
2023-02-14T08:46:43.918Z,6.23
2023-02-14T08:49:11.430Z,6.32
2023-02-14T08:51:38.509Z,6.40
2023-02-14T08:54:05.564Z,6.42
2023-02-14T08:56:33.261Z,6.54
2023-02-14T08:59:00.329Z,6.59
2023-02-14T09:01:29.297Z,6.66
2023-02-14T09:03:57.021Z,6.74
2023-02-14T09:06:24.810Z,6.91
2023-02-14T09:08:51.997Z,6.90
2023-02-14T09:11:24.308Z,7.05
2023-02-14T09:13:56.139Z,7.12
2023-02-14T09:16:25.048Z,7.29
2023-02-14T09:18:53.650Z,7.36
2023-02-14T09:21:24.634Z,7.44
2023-02-14T09:23:52.440Z,7.54
2023-02-14T09:26:20.110Z,7.62
2023-02-14T09:28:47.897Z,7.74
2023-02-14T09:31:20.374Z,7.89
2023-02-14T09:33:49.083Z,7.99
2023-02-14T09:36:34.712Z,8.14
2023-02-14T09:39:01.710Z,8.27
2023-02-14T09:41:31.635Z,8.41
2023-02-14T09:44:27.110Z,8.46
2023-02-14T09:46:57.183Z,8.68
2023-02-14T09:49:34.360Z,8.83
2023-02-14T09:52:04.668Z,8.94
2023-02-14T09:54:34.950Z,9.09
2023-02-14T09:57:17.557Z,9.21
2023-02-14T10:00:00.520Z,9.43
2023-02-14T10:02:39.403Z,9.62
2023-02-14T10:05:06.660Z,9.76
2023-02-14T10:08:05.626Z,9.96
2023-02-14T10:10:41.862Z,10.13
2023-02-14T10:13:56.832Z,10.31
2023-02-14T10:16:37.850Z,10.39
2023-02-14T10:19:12.969Z,10.56
2023-02-14T10:22:17.283Z,10.72
2023-02-14T10:24:54.420Z,10.92
2023-02-14T10:27:44.870Z,11.13
2023-02-14T10:30:21.576Z,11.32
2023-02-14T10:32:56.329Z,11.40
2023-02-14T10:35:34.370Z,11.56
2023-02-14T10:38:27.822Z,11.59
2023-02-14T10:40:57.690Z,11.68
2023-02-14T10:43:39.332Z,11.79
2023-02-14T10:46:36.519Z,11.89
2023-02-14T10:49:25.714Z,11.94
2023-02-14T10:52:02.132Z,12.11
2023-02-14T10:54:39.274Z,12.27
2023-02-14T10:57:22.311Z,12.40
2023-02-14T11:00:00.865Z,12.56
2023-02-14T11:02:35.227Z,12.59
2023-02-14T11:05:04.765Z,12.70
2023-02-14T11:07:31.763Z,12.83
2023-02-14T11:09:58.823Z,13.02
2023-02-14T11:12:32.757Z,13.12
2023-02-14T11:15:19.585Z,13.31
2023-02-14T11:17:46.674Z,13.51
2023-02-14T11:20:22.945Z,13.59
2023-02-14T11:22:50.511Z,13.57
2023-02-14T11:25:31.585Z,13.63
2023-02-14T11:28:08.856Z,13.72
2023-02-14T11:30:48.034Z,13.84
2023-02-14T11:33:38.803Z,13.87
2023-02-14T11:36:12.354Z,13.77
2023-02-14T11:38:40.923Z,13.83
2023-02-14T11:41:11.771Z,13.79
2023-02-14T11:43:44.727Z,13.90
2023-02-14T11:46:24.237Z,14.14
2023-02-14T11:49:07.083Z,14.21
2023-02-14T11:51:42.073Z,14.28
2023-02-14T11:54:24.705Z,14.32
2023-02-14T11:57:01.619Z,14.34
2023-02-14T11:59:53.503Z,14.51
2023-02-14T12:13:28.004Z,14.40
2023-02-14T12:15:58.027Z,14.56
2023-02-14T12:18:56.276Z,14.68
2023-02-14T12:21:47.615Z,14.95
2023-02-14T12:24:28.356Z,14.95
2023-02-14T12:27:23.555Z,15.50
2023-02-14T12:30:01.931Z,15.50
2023-02-14T12:32:31.870Z,15.86
2023-02-14T12:35:27.823Z,16.07
2023-02-14T12:38:06.312Z,16.42
2023-02-14T12:41:06.131Z,16.71
2023-02-14T12:43:46.383Z,16.73
2023-02-14T12:46:32.142Z,17.04
2023-02-14T12:49:14.400Z,17.25
2023-02-14T12:52:02.280Z,17.49
2023-02-14T12:55:14.404Z,17.36
2023-02-14T12:57:50.451Z,17.59
2023-02-14T13:00:57.091Z,18.02
2023-02-14T13:03:27.003Z,18.54
2023-02-14T13:05:58.576Z,18.72
2023-02-14T13:08:42.746Z,18.49
2023-02-14T13:11:12.623Z,18.73
2023-02-14T13:13:47.925Z,18.96
2023-02-14T13:16:23.668Z,19.30
2023-02-14T13:18:58.251Z,19.70
2023-02-14T13:21:29.653Z,20.30
2023-02-14T13:24:13.224Z,21.00
2023-02-14T13:26:45.422Z,21.70
2023-02-14T13:29:19.595Z,22.23
2023-02-14T13:31:47.283Z,23.26
2023-02-14T13:34:16.943Z,23.72
2023-02-14T13:36:44.462Z,24.71
2023-02-14T13:39:25.561Z,25.49
2023-02-14T13:41:52.638Z,25.72
2023-02-14T13:44:47.870Z,25.63
2023-02-14T13:47:22.434Z,26.46
2023-02-14T13:49:55.007Z,27.38
2023-02-14T13:52:47.641Z,26.97
2023-02-14T13:55:26.287Z,27.37
2023-02-14T13:58:16.880Z,28.03
2023-02-14T14:00:48.265Z,28.19
2023-02-14T14:03:38.218Z,28.20
2023-02-14T14:06:10.984Z,27.74
2023-02-14T14:08:45.072Z,26.04
2023-02-14T14:11:21.157Z,25.29
2023-02-14T14:13:54.878Z,23.84
2023-02-14T14:16:28.250Z,22.66
2023-02-14T14:19:30.696Z,21.04
2023-02-14T14:22:04.038Z,19.99
2023-02-14T14:24:57.350Z,19.05
2023-02-14T14:27:29.491Z,18.16
2023-02-14T14:29:58.856Z,17.43
2023-02-14T14:32:34.732Z,16.89
2023-02-14T14:35:21.653Z,16.38
2023-02-14T14:37:56.892Z,15.92
2023-02-14T14:40:25.778Z,15.51
2023-02-14T14:42:54.361Z,15.12
2023-02-14T14:45:26.817Z,14.82
2023-02-14T14:47:57.838Z,14.49
2023-02-14T14:50:26.662Z,14.19
2023-02-14T14:52:57.459Z,13.92
2023-02-14T14:55:31.331Z,13.66
2023-02-14T14:58:01.117Z,13.42
2023-02-14T15:00:31.785Z,13.19
2023-02-14T15:03:22.308Z,13.06
2023-02-14T15:05:51.336Z,12.93
2023-02-14T15:08:33.098Z,12.68
2023-02-14T15:11:10.014Z,12.57
2023-02-14T15:13:55.198Z,12.42
2023-02-14T15:16:26.549Z,12.29
2023-02-14T15:19:16.362Z,12.13
2023-02-14T15:21:44.796Z,12.04
2023-02-14T15:24:16.269Z,11.93
2023-02-14T15:26:45.567Z,11.80
2023-02-14T15:29:25.875Z,11.70
2023-02-14T15:31:54.064Z,11.63
2023-02-14T15:34:23.875Z,11.53
2023-02-14T15:36:56.311Z,11.42
2023-02-14T15:39:32.650Z,11.31
2023-02-14T15:42:00.032Z,11.27
2023-02-14T15:44:27.000Z,11.18
2023-02-14T15:46:58.859Z,11.09
2023-02-14T15:49:41.505Z,11.00
2023-02-14T15:52:14.351Z,10.89
2023-02-14T15:54:47.606Z,10.83
2023-02-14T15:57:25.388Z,10.79
2023-02-14T15:59:52.710Z,10.72
2023-02-14T16:02:38.794Z,10.65
2023-02-14T16:05:20.763Z,10.56
2023-02-14T16:08:04.424Z,10.49
2023-02-14T16:10:40.596Z,10.43
2023-02-14T16:13:20.669Z,10.36
2023-02-14T16:16:01.312Z,10.20
2023-02-14T16:18:43.609Z,10.02
2023-02-14T16:21:28.617Z,9.90
2023-02-14T16:24:07.576Z,9.77
2023-02-14T16:26:38.353Z,9.65
2023-02-14T16:29:07.359Z,9.51
2023-02-14T16:31:34.804Z,9.37
2023-02-14T16:34:02.191Z,9.27
2023-02-14T16:36:33.725Z,9.17
2023-02-14T16:39:05.270Z,9.02
2023-02-14T16:41:34.377Z,8.92
2023-02-14T16:44:01.659Z,8.83
2023-02-14T16:46:35.276Z,8.72
2023-02-14T16:49:03.481Z,8.65
2023-02-14T16:51:35.567Z,8.55
2023-02-14T16:54:09.408Z,8.47
2023-02-14T16:56:52.947Z,8.39
2023-02-14T16:59:21.547Z,8.31
2023-02-14T17:01:50.318Z,8.25
2023-02-14T17:04:18.257Z,8.18
2023-02-14T17:06:54.050Z,8.11
2023-02-14T17:09:30.752Z,8.05
2023-02-14T17:12:04.119Z,8.00
2023-02-14T17:14:37.926Z,7.95
2023-02-14T17:17:08.698Z,7.89
2023-02-14T17:19:37.523Z,7.77
2023-02-14T17:22:06.256Z,7.77
2023-02-14T17:24:36.275Z,7.61
2023-02-14T17:27:05.572Z,7.47
2023-02-14T17:29:34.438Z,7.45
2023-02-14T17:32:02.980Z,7.38
2023-02-14T17:34:34.574Z,7.31
2023-02-14T17:37:03.103Z,7.23
2023-02-14T17:39:30.107Z,7.20
2023-02-14T17:41:57.131Z,7.16
2023-02-14T17:44:24.318Z,7.12
2023-02-14T17:46:51.444Z,7.07
2023-02-14T17:49:19.792Z,7.04
2023-02-14T17:51:50.027Z,7.01
2023-02-14T17:54:18.000Z,6.98
2023-02-14T17:56:45.533Z,6.94
2023-02-14T17:59:14.364Z,6.89
2023-02-14T18:01:43.472Z,6.87
2023-02-14T18:04:10.722Z,6.78
2023-02-14T18:06:38.913Z,6.70
2023-02-14T18:09:10.206Z,6.63
2023-02-14T18:11:40.271Z,6.54
2023-02-14T18:14:07.355Z,6.48
2023-02-14T18:16:41.924Z,6.42
2023-02-14T18:19:10.616Z,6.39
2023-02-14T18:21:40.573Z,6.33
2023-02-14T18:24:20.822Z,6.27
2023-02-14T18:26:50.680Z,6.23
2023-02-14T18:29:18.641Z,6.15
2023-02-14T18:31:47.168Z,6.10
2023-02-14T18:34:16.170Z,6.07
2023-02-14T18:36:46.423Z,6.01
2023-02-14T18:39:14.952Z,5.96
2023-02-14T18:41:43.123Z,5.90
2023-02-14T18:44:10.922Z,5.84
2023-02-14T18:46:38.963Z,5.82
2023-02-14T18:49:09.018Z,5.77
2023-02-14T18:51:40.076Z,5.71
2023-02-14T18:54:08.278Z,5.71
2023-02-14T18:56:44.537Z,5.68
2023-02-14T18:59:18.393Z,5.64
2023-02-14T19:01:47.056Z,5.59
2023-02-14T19:04:18.490Z,5.55
2023-02-14T19:06:47.492Z,5.49
2023-02-14T19:09:18.297Z,5.45
2023-02-14T19:11:47.086Z,5.42
2023-02-14T19:14:16.283Z,5.38
2023-02-14T19:16:51.373Z,5.33
2023-02-14T19:19:20.408Z,5.34
2023-02-14T19:21:48.573Z,5.32
2023-02-14T19:24:18.542Z,5.28
2023-02-14T19:26:46.828Z,5.27
2023-02-14T19:29:17.841Z,5.24
2023-02-14T19:31:49.942Z,5.22
2023-02-14T19:34:21.439Z,5.18
2023-02-14T19:36:51.699Z,5.13
2023-02-14T19:39:20.584Z,5.13
2023-02-14T19:41:48.835Z,5.12
2023-02-14T19:44:19.055Z,5.08
2023-02-14T19:46:48.689Z,5.08
2023-02-14T19:49:20.435Z,5.05
2023-02-14T19:51:52.724Z,5.03
2023-02-14T19:54:26.428Z,5.02
2023-02-14T19:56:57.216Z,5.02
2023-02-14T19:59:29.024Z,5.03
2023-02-14T20:01:58.847Z,5.01
2023-02-14T20:04:30.233Z,5.00
2023-02-14T20:06:58.659Z,4.97
2023-02-14T20:09:29.916Z,4.94
2023-02-14T20:12:00.297Z,4.90
2023-02-14T20:14:40.795Z,4.85
2023-02-14T20:17:18.959Z,4.84
2023-02-14T20:20:08.466Z,4.82
2023-02-14T20:22:38.444Z,4.77
2023-02-14T20:25:07.072Z,4.76
2023-02-14T20:27:34.391Z,4.73
2023-02-14T20:30:04.179Z,4.72
2023-02-14T20:32:32.060Z,4.70
2023-02-14T20:35:04.156Z,4.67
2023-02-14T20:37:33.525Z,4.59
2023-02-14T20:40:05.669Z,4.48
2023-02-14T20:42:35.053Z,4.45
2023-02-14T20:45:02.745Z,4.41
2023-02-14T20:47:32.760Z,4.35
2023-02-14T20:50:00.447Z,4.32
2023-02-14T20:52:29.100Z,4.29
2023-02-14T20:54:59.792Z,4.26
2023-02-14T20:57:30.043Z,4.24
2023-02-14T20:59:57.918Z,4.22
2023-02-14T21:02:30.506Z,4.18
2023-02-14T21:05:01.646Z,4.10
2023-02-14T21:07:32.378Z,4.03
2023-02-14T21:10:00.307Z,4.01
2023-02-14T21:12:30.376Z,3.99
2023-02-14T21:14:59.488Z,3.92
2023-02-14T21:17:29.254Z,3.95
2023-02-14T21:19:58.081Z,3.90
2023-02-14T21:22:27.017Z,3.87
2023-02-14T21:24:55.043Z,3.90
2023-02-14T21:27:24.140Z,3.93
2023-02-14T21:29:54.367Z,3.89
2023-02-14T21:32:23.241Z,3.86
2023-02-14T21:34:51.510Z,3.85
2023-02-14T21:37:20.825Z,3.80
2023-02-14T21:39:48.767Z,3.84
2023-02-14T21:42:19.168Z,3.81
2023-02-14T21:45:05.608Z,3.77
2023-02-14T21:47:39.499Z,3.68
2023-02-14T21:50:39.528Z,3.70
2023-02-14T21:53:09.981Z,3.70
2023-02-14T21:55:39.380Z,3.72
2023-02-14T21:58:08.226Z,3.76
2023-02-14T22:00:36.079Z,3.78
2023-02-14T22:03:04.939Z,3.83
2023-02-14T22:05:34.768Z,3.86
2023-02-14T22:08:05.048Z,3.87
2023-02-14T22:10:33.858Z,3.91
2023-02-14T22:13:01.675Z,3.95
2023-02-14T22:15:30.617Z,3.97
2023-02-14T22:17:58.803Z,4.00
2023-02-14T22:20:27.854Z,4.02
2023-02-14T22:22:55.125Z,4.07
2023-02-14T22:25:22.014Z,4.12
2023-02-14T22:27:48.947Z,4.08
2023-02-14T22:30:16.001Z,4.05
2023-02-14T22:32:42.914Z,4.07
2023-02-14T22:35:09.881Z,4.09
2023-02-14T22:37:36.946Z,4.06
2023-02-14T22:40:04.410Z,4.04
2023-02-14T22:42:32.080Z,4.09
2023-02-14T22:44:59.040Z,3.98
2023-02-14T22:47:26.071Z,3.98
2023-02-14T22:49:53.120Z,3.95
2023-02-14T22:52:20.123Z,3.90
2023-02-14T22:54:47.135Z,4.03
2023-02-14T22:57:14.221Z,4.04
2023-02-14T22:59:41.219Z,4.06
2023-02-14T23:02:09.904Z,4.08
2023-02-14T23:04:36.928Z,4.12
2023-02-14T23:07:03.854Z,4.16
2023-02-14T23:09:30.969Z,4.25
2023-02-14T23:11:57.969Z,4.28
2023-02-14T23:14:43.529Z,4.33
2023-02-14T23:17:15.129Z,4.41
2023-02-14T23:20:02.080Z,4.35
2023-02-14T23:22:41.082Z,4.44
2023-02-14T23:25:11.080Z,4.50
2023-02-14T23:27:43.704Z,4.52
2023-02-14T23:30:14.325Z,4.53
2023-02-14T23:32:41.601Z,4.59
2023-02-14T23:35:09.244Z,4.59
2023-02-14T23:37:36.424Z,4.62
2023-02-14T23:40:04.208Z,4.69
2023-02-14T23:42:31.173Z,4.72
2023-02-14T23:45:18.030Z,4.80
2023-02-14T23:47:45.153Z,4.78
2023-02-14T23:50:12.094Z,4.77
2023-02-14T23:52:41.981Z,4.82
2023-02-14T23:55:09.508Z,4.86
2023-02-14T23:57:37.223Z,4.85
